Time;durP1;ratioP1;P1;durP2;ratioP2;P2;SDS_P1;SDS_P2;PMS_P1;PMS_P2;Temp;Humidity;BMP_temperature;BMP_pressure;BME280_temperature;BME280_humidity;BME280_pressure;Samples;Min_cycle;Max_cycle;Signal;HPM_P1;HPM_P2
2021/05/06 00:32:55;;;;;;;6.40;1.60;;;;;;;;;;5106274;28;20326;-66
2021/05/06 00:35:21;;;;;;;8.63;1.77;;;;;;;;;;5099943;28;20281;-66
2021/05/06 00:38:04;;;;;;;5.93;1.40;;;;;;;;;;5091060;28;20335;-66
2021/05/06 00:40:49;;;;;;;;;;;;;;;;;;5106840;28;20023;-66
2021/05/06 01:07:41;;;;;;;4.73;1.57;;;;;;;;;;5087428;28;20285;-66
2021/05/06 01:12:36;;;;;;;3.17;1.40;;;;;;;;;;5097443;28;20692;-66
2021/05/06 01:15:01;;;;;;;3.30;1.40;;;;;;;;;;5099501;28;20293;-66
2021/05/06 01:17:27;;;;;;;5.23;1.47;;;;;;;;;;5101755;28;20031;-66
2021/05/06 01:19:52;;;;;;;8.17;1.67;;;;;;;;;;5113575;28;20055;-66
2021/05/06 01:22:17;;;;;;;8.07;1.80;;;;;;;;;;5109677;28;20077;-66
2021/05/06 01:24:46;;;;;;;9.27;1.70;;;;;;;;;;5104260;28;20034;-66
2021/05/06 01:27:19;;;;;;;9.83;1.60;;;;;;;;;;5103903;28;20028;-66
2021/05/06 01:29:54;;;;;;;4.53;1.40;;;;;;;;;;5116224;28;20800;-66
2021/05/06 01:32:28;;;;;;;9.70;2.67;;;;;;;;;;5112355;28;21283;-66
2021/05/06 01:35:00;;;;;;;4.67;1.70;;;;;;;;;;5111812;28;20732;-66
2021/05/06 01:47:44;;;;;;;6.10;1.60;;;;;;;;;;5107151;28;20020;-66
2021/05/06 02:01:07;;;;;;;4.43;1.30;;;;;;;;;;5105893;28;20305;-66
2021/05/06 02:03:35;;;;;;;10.30;2.10;;;;;;;;;;5104078;28;20312;-66
2021/05/06 02:06:01;;;;;;;8.17;1.63;;;;;;;;;;5105293;28;20278;-66
2021/05/06 02:08:26;;;;;;;5.90;1.97;;;;;;;;;;5103296;28;20274;-66
2021/05/06 02:10:55;;;;;;;5.37;1.90;;;;;;;;;;5110949;28;20135;-66
2021/05/06 02:13:21;;;;;;;5.93;1.83;;;;;;;;;;5107314;27;20087;-66
2021/05/06 02:15:52;;;;;;;9.53;1.90;;;;;;;;;;5110010;27;20277;-66
2021/05/06 02:18:18;;;;;;;5.60;1.57;;;;;;;;;;5100515;28;20024;-66
2021/05/06 02:20:45;;;;;;;5.10;1.47;;;;;;;;;;5105211;28;20744;-66
2021/05/06 02:23:11;;;;;;;5.00;1.40;;;;;;;;;;5105041;28;20460;-66
2021/05/06 02:25:36;;;;;;;5.47;1.37;;;;;;;;;;5109109;28;20276;-66
2021/05/06 02:28:02;;;;;;;5.27;1.53;;;;;;;;;;5112247;28;20470;-66
2021/05/06 02:30:28;;;;;;;6.97;1.90;;;;;;;;;;5112803;28;20039;-66
2021/05/06 02:32:53;;;;;;;4.73;1.80;;;;;;;;;;5114021;28;20281;-66
2021/05/06 02:35:18;;;;;;;5.97;1.57;;;;;;;;;;5114417;28;20032;-66
2021/05/06 02:37:43;;;;;;;6.17;1.60;;;;;;;;;;5110591;28;20026;-66
2021/05/06 02:40:09;;;;;;;3.93;1.47;;;;;;;;;;5099188;28;20024;-66
2021/05/06 02:42:35;;;;;;;5.43;1.30;;;;;;;;;;5098483;28;20532;-66
2021/05/06 02:45:01;;;;;;;7.17;1.33;;;;;;;;;;5108342;28;20269;-67
2021/05/06 02:47:27;;;;;;;7.87;1.60;;;;;;;;;;5111478;28;20105;-66
2021/05/06 02:49:52;;;;;;;4.10;1.47;;;;;;;;;;5107873;28;20028;-66
2021/05/06 02:52:39;;;;;;;2.80;1.27;;;;;;;;;;5105593;27;20285;-66
2021/05/06 02:58:11;;;;;;;5.97;1.63;;;;;;;;;;5008325;28;20288;-66
2021/05/06 03:03:20;;;;;;;3.77;1.30;;;;;;;;;;5104663;27;20320;-66
2021/05/06 03:05:52;;;;;;;2.90;1.20;;;;;;;;;;5098852;28;20295;-66
2021/05/06 03:08:22;;;;;;;4.47;1.50;;;;;;;;;;5101633;27;20693;-66
2021/05/06 03:24:19;;;;;;;4.03;1.53;;;;;;;;;;5109459;28;20293;-66
2021/05/06 03:26:45;;;;;;;4.40;1.40;;;;;;;;;;5105597;28;20276;-66
2021/05/06 03:29:12;;;;;;;3.40;1.47;;;;;;;;;;5095948;28;20625;-66
2021/05/06 03:42:31;;;;;;;3.97;1.50;;;;;;;;;;5102244;28;20327;-66
2021/05/06 04:27:25;;;;;;;4.20;1.67;;;;;;;;;;5101671;28;20254;-66
2021/05/06 04:35:38;;;;;;;5.37;1.83;;;;;;;;;;5103051;28;20281;-66
2021/05/06 04:38:08;;;;;;;3.92;1.63;;;;;;;;;;5107728;28;20273;-66
2021/05/06 04:43:59;;;;;;;8.50;1.70;;;;;;;;;;5110098;28;20274;-66
2021/05/06 04:54:29;;;;;;;4.57;1.90;;;;;;;;;;5112691;28;20252;-68
2021/05/06 05:04:55;;;;;;;11.67;1.50;;;;;;;;;;5106212;28;20366;-69
2021/05/06 05:17:46;;;;;;;5.50;1.80;;;;;;;;;;5105283;28;20844;-69
2021/05/06 05:25:30;;;;;;;4.17;1.57;;;;;;;;;;5109176;28;20028;-66
2021/05/06 05:27:56;;;;;;;4.40;1.80;;;;;;;;;;5100798;28;20019;-67
2021/05/06 05:30:25;;;;;;;3.27;1.50;;;;;;;;;;5108971;28;20018;-70
2021/05/06 05:32:50;;;;;;;4.07;1.80;;;;;;;;;;5106958;28;20027;-73
2021/05/06 05:35:27;;;;;;;3.53;1.30;;;;;;;;;;5100123;28;20020;-73
2021/05/06 05:38:01;;;;;;;2.97;1.40;;;;;;;;;;5107653;28;20460;-74
2021/05/06 05:40:35;;;;;;;3.40;1.40;;;;;;;;;;5104716;28;20106;-74
2021/05/06 05:55:49;;;;;;;3.67;1.30;;;;;;;;;;5097867;28;20023;-74
2021/05/06 05:58:14;;;;;;;3.03;1.40;;;;;;;;;;5111441;28;20016;-76
2021/05/06 06:00:40;;;;;;;3.10;1.43;;;;;;;;;;5107567;28;20032;-76
2021/05/06 06:03:05;;;;;;;3.53;1.47;;;;;;;;;;5108685;28;20043;-77
2021/05/06 06:05:30;;;;;;;3.70;1.33;;;;;;;;;;5114147;28;20031;-72
2021/05/06 06:07:56;;;;;;;4.03;1.80;;;;;;;;;;5112843;28;20030;-69
2021/05/06 06:10:21;;;;;;;3.30;1.30;;;;;;;;;;5115037;28;20023;-67
2021/05/06 06:12:46;;;;;;;4.23;1.87;;;;;;;;;;5114066;28;20023;-67
2021/05/06 06:15:22;;;;;;;4.90;1.90;;;;;;;;;;5114376;28;20537;-66
2021/05/06 06:17:48;;;;;;;4.00;1.77;;;;;;;;;;5113822;28;20028;-66
2021/05/06 06:20:14;;;;;;;4.87;2.00;;;;;;;;;;5115086;28;20012;-66
2021/05/06 06:22:39;;;;;;;4.93;2.00;;;;;;;;;;5109104;27;20488;-66
2021/05/06 06:25:05;;;;;;;3.23;1.47;;;;;;;;;;5114910;28;20023;-71
2021/05/06 06:27:30;;;;;;;2.97;1.57;;;;;;;;;;5114255;28;20019;-75
2021/05/06 06:29:56;;;;;;;3.70;1.60;;;;;;;;;;5096860;28;20015;-75
2021/05/06 06:32:22;;;;;;;5.53;1.80;;;;;;;;;;5108829;28;20085;-77
2021/05/06 06:34:47;;;;;;;4.30;2.10;;;;;;;;;;5097077;28;20472;-76
2021/05/06 06:37:13;;;;;;;4.03;1.70;;;;;;;;;;5103826;28;20025;-76
2021/05/06 06:39:42;;;;;;;3.40;1.73;;;;;;;;;;5115012;28;20018;-77
2021/05/06 06:42:08;;;;;;;4.37;1.70;;;;;;;;;;5111136;28;20043;-76
2021/05/06 06:44:34;;;;;;;4.40;1.80;;;;;;;;;;5096568;28;20117;-76
2021/05/06 06:47:06;;;;;;;5.67;2.17;;;;;;;;;;5109193;28;20526;-77
2021/05/06 06:49:36;;;;;;;3.75;1.60;;;;;;;;;;5113464;28;20035;-76
2021/05/06 06:52:02;;;;;;;3.63;1.73;;;;;;;;;;5101268;28;20035;-76
2021/05/06 06:54:28;;;;;;;3.27;1.43;;;;;;;;;;5097966;28;20027;-75
2021/05/06 06:56:54;;;;;;;3.40;1.57;;;;;;;;;;5075746;28;20453;-76
2021/05/06 06:59:19;;;;;;;6.63;2.07;;;;;;;;;;5113266;28;20023;-77
2021/05/06 07:01:45;;;;;;;5.40;1.60;;;;;;;;;;5101817;28;20500;-75
2021/05/06 07:04:10;;;;;;;3.80;1.50;;;;;;;;;;5113674;28;20024;-72
2021/05/06 07:06:36;;;;;;;6.03;2.00;;;;;;;;;;5085295;28;20031;-74
2021/05/06 07:09:01;;;;;;;4.87;2.03;;;;;;;;;;5106720;28;20070;-73
2021/05/06 07:11:26;;;;;;;8.13;1.90;;;;;;;;;;5099579;28;20020;-72
2021/05/06 07:13:52;;;;;;;4.80;2.43;;;;;;;;;;5113050;28;20031;-76
2021/05/06 07:16:17;;;;;;;3.63;1.83;;;;;;;;;;5109788;28;20055;-73
2021/05/06 07:18:43;;;;;;;4.83;1.97;;;;;;;;;;5100598;27;20077;-70
2021/05/06 07:21:08;;;;;;;4.40;1.97;;;;;;;;;;5102424;28;20020;-68
2021/05/06 07:23:34;;;;;;;5.03;2.10;;;;;;;;;;5105052;28;20016;-73
2021/05/06 07:26:00;;;;;;;4.83;2.20;;;;;;;;;;5108421;28;20020;-74
2021/05/06 07:28:29;;;;;;;3.50;1.63;;;;;;;;;;5107398;28;20068;-72
2021/05/06 07:30:55;;;;;;;4.47;2.00;;;;;;;;;;5108859;28;20165;-72
2021/05/06 07:33:20;;;;;;;4.80;2.13;;;;;;;;;;5113165;28;20061;-75
2021/05/06 07:35:46;;;;;;;6.93;2.23;;;;;;;;;;5109116;28;20441;-72
2021/05/06 07:38:11;;;;;;;5.53;2.30;;;;;;;;;;5108777;28;20015;-68
2021/05/06 07:40:37;;;;;;;5.20;2.60;;;;;;;;;;5112183;28;20459;-68
2021/05/06 07:43:03;;;;;;;5.93;2.37;;;;;;;;;;5107074;27;20024;-68
2021/05/06 07:45:30;;;;;;;5.87;2.50;;;;;;;;;;5111423;28;20016;-68
2021/05/06 07:47:55;;;;;;;6.33;2.83;;;;;;;;;;5110657;28;20039;-69
2021/05/06 07:50:21;;;;;;;5.57;3.03;;;;;;;;;;5109843;28;20476;-70
2021/05/06 07:52:49;;;;;;;6.70;3.20;;;;;;;;;;5099108;28;20033;-70
2021/05/06 07:55:15;;;;;;;6.50;2.63;;;;;;;;;;5112990;28;20077;-69
2021/05/06 07:57:40;;;;;;;6.00;2.87;;;;;;;;;;5100847;28;20383;-71
2021/05/06 08:00:06;;;;;;;7.13;3.37;;;;;;;;;;5108617;28;20588;-74
2021/05/06 08:02:31;;;;;;;5.40;2.50;;;;;;;;;;5096553;28;20044;-74
2021/05/06 08:04:57;;;;;;;6.23;2.60;;;;;;;;;;5099319;28;20427;-75
2021/05/06 08:07:22;;;;;;;6.17;2.97;;;;;;;;;;5102375;28;20095;-71
2021/05/06 08:09:48;;;;;;;4.20;2.30;;;;;;;;;;5101712;28;20028;-69
2021/05/06 08:12:14;;;;;;;5.77;2.70;;;;;;;;;;5101412;28;20023;-74
2021/05/06 08:14:39;;;;;;;4.67;2.20;;;;;;;;;;5104921;28;20160;-76
2021/05/06 08:17:05;;;;;;;6.10;2.80;;;;;;;;;;5106676;28;20094;-76
2021/05/06 08:19:30;;;;;;;5.33;2.77;;;;;;;;;;5111522;28;20417;-75
2021/05/06 08:21:56;;;;;;;5.43;2.90;;;;;;;;;;5105948;28;20027;-75
2021/05/06 08:24:21;;;;;;;6.37;3.07;;;;;;;;;;5099510;28;20020;-75
2021/05/06 08:26:46;;;;;;;5.10;2.77;;;;;;;;;;5101449;28;20076;-73
2021/05/06 08:29:11;;;;;;;6.60;2.73;;;;;;;;;;5109593;28;20479;-69
2021/05/06 08:31:37;;;;;;;6.13;2.70;;;;;;;;;;5108751;28;20039;-75
2021/05/06 08:34:02;;;;;;;5.20;2.60;;;;;;;;;;5111752;28;20019;-75
2021/05/06 08:36:27;;;;;;;6.90;3.13;;;;;;;;;;5109498;28;20446;-75
2021/05/06 08:38:53;;;;;;;6.80;3.10;;;;;;;;;;5110536;28;20049;-72
2021/05/06 08:41:19;;;;;;;7.23;2.70;;;;;;;;;;5110380;28;20107;-69
2021/05/06 08:43:52;;;;;;;4.80;2.60;;;;;;;;;;5105616;28;20037;-74
2021/05/06 08:46:18;;;;;;;8.07;2.50;;;;;;;;;;5110263;28;20016;-72
2021/05/06 08:48:43;;;;;;;7.03;2.67;;;;;;;;;;5111572;28;20024;-69
2021/05/06 08:51:08;;;;;;;5.77;2.40;;;;;;;;;;5106422;28;20028;-75
2021/05/06 08:53:34;;;;;;;4.63;2.37;;;;;;;;;;5103148;28;20085;-75
2021/05/06 08:56:00;;;;;;;4.93;2.10;;;;;;;;;;5102417;28;20035;-75
2021/05/06 08:58:25;;;;;;;7.20;2.40;;;;;;;;;;5112028;28;20380;-73
2021/05/06 09:00:51;;;;;;;5.33;1.90;;;;;;;;;;5108060;28;20030;-75
2021/05/06 09:03:16;;;;;;;4.07;1.67;;;;;;;;;;5103710;28;20023;-75
2021/05/06 09:06:00;;;;;;;4.93;2.00;;;;;;;;;;5094915;28;20019;-74
2021/05/06 09:08:38;;;;;;;5.87;2.37;;;;;;;;;;5106216;28;20020;-70
2021/05/06 09:11:03;;;;;;;5.30;2.40;;;;;;;;;;5107435;28;20468;-73
2021/05/06 09:13:30;;;;;;;6.57;2.00;;;;;;;;;;5107868;28;20030;-75
2021/05/06 09:15:56;;;;;;;5.27;2.00;;;;;;;;;;5103252;28;20031;-76
2021/05/06 09:18:41;;;;;;;4.47;1.73;;;;;;;;;;5104811;28;20024;-75
2021/05/06 09:21:08;;;;;;;3.30;1.50;;;;;;;;;;5092413;28;20102;-76
2021/05/06 09:23:34;;;;;;;4.20;1.67;;;;;;;;;;5096844;28;20036;-71
2021/05/06 09:26:03;;;;;;;4.47;1.97;;;;;;;;;;5096488;28;20412;-68
2021/05/06 09:28:29;;;;;;;4.70;2.50;;;;;;;;;;5110569;28;20008;-67
2021/05/06 09:30:56;;;;;;;8.20;2.80;;;;;;;;;;5108189;28;20089;-67
2021/05/06 09:33:27;;;;;;;10.67;2.47;;;;;;;;;;5110932;28;20434;-68
2021/05/06 09:35:53;;;;;;;4.90;2.03;;;;;;;;;;5107239;28;20119;-68
2021/05/06 09:38:24;;;;;;;4.13;1.90;;;;;;;;;;5102954;28;20102;-68
2021/05/06 09:40:50;;;;;;;4.67;2.20;;;;;;;;;;5106320;27;20530;-67
2021/05/06 09:43:45;;;;;;;6.40;2.20;;;;;;;;;;5113353;28;20123;-74
2021/05/06 09:46:25;;;;;;;2.53;1.17;;;;;;;;;;5095581;28;20026;-74
2021/05/06 09:48:54;;;;;;;13.13;1.90;;;;;;;;;;5115443;28;20030;-75
2021/05/06 09:51:27;;;;;;;2.93;1.60;;;;;;;;;;5114157;28;20019;-74
2021/05/06 09:53:55;;;;;;;2.93;1.37;;;;;;;;;;5096199;28;20020;-74
2021/05/06 09:56:23;;;;;;;2.83;1.40;;;;;;;;;;5109472;28;20357;-74
2021/05/06 09:58:48;;;;;;;4.07;1.17;;;;;;;;;;5109357;28;20024;-70
2021/05/06 10:01:14;;;;;;;2.93;1.30;;;;;;;;;;5109015;28;20533;-69
2021/05/06 10:03:39;;;;;;;2.73;1.20;;;;;;;;;;5109197;28;20032;-68
2021/05/06 10:06:15;;;;;;;3.93;1.70;;;;;;;;;;5112520;28;20039;-68
2021/05/06 10:08:40;;;;;;;4.77;1.57;;;;;;;;;;5115359;28;20034;-69
2021/05/06 10:11:07;;;;;;;3.10;1.57;;;;;;;;;;5101799;28;20379;-72
2021/05/06 10:13:32;;;;;;;2.10;1.10;;;;;;;;;;5108999;28;20531;-72
2021/05/06 10:15:58;;;;;;;5.30;1.40;;;;;;;;;;5105917;28;20153;-73
2021/05/06 10:18:23;;;;;;;6.47;1.90;;;;;;;;;;5101864;28;20030;-74
2021/05/06 10:20:48;;;;;;;4.93;1.93;;;;;;;;;;5101994;28;20038;-73
2021/05/06 10:23:15;;;;;;;3.07;1.53;;;;;;;;;;5111763;28;20549;-71
2021/05/06 10:25:40;;;;;;;3.80;1.67;;;;;;;;;;5113146;28;20027;-71
2021/05/06 10:28:06;;;;;;;3.77;1.70;;;;;;;;;;5109367;28;20464;-70
2021/05/06 10:30:31;;;;;;;3.67;1.80;;;;;;;;;;5114608;28;20028;-69
2021/05/06 10:32:56;;;;;;;6.07;1.90;;;;;;;;;;5109366;28;20016;-68
2021/05/06 10:35:24;;;;;;;3.53;1.50;;;;;;;;;;5114629;27;20028;-68
2021/05/06 10:37:57;;;;;;;5.83;1.73;;;;;;;;;;5105604;28;20020;-68
2021/05/06 10:40:22;;;;;;;3.87;2.00;;;;;;;;;;5100448;28;20022;-67
2021/05/06 10:42:48;;;;;;;4.10;1.90;;;;;;;;;;5111241;28;20040;-68
2021/05/06 10:45:13;;;;;;;4.23;1.80;;;;;;;;;;5115021;28;20023;-70
2021/05/06 10:47:42;;;;;;;3.50;1.60;;;;;;;;;;5112418;28;20077;-70
2021/05/06 10:50:07;;;;;;;4.60;1.67;;;;;;;;;;5111799;28;20379;-69
2021/05/06 10:52:37;;;;;;;3.73;1.40;;;;;;;;;;5110772;28;20019;-69
2021/05/06 10:55:03;;;;;;;3.20;1.40;;;;;;;;;;5112754;28;20039;-69
2021/05/06 10:57:32;;;;;;;3.63;1.50;;;;;;;;;;5101210;28;20495;-68
2021/05/06 10:59:57;;;;;;;3.60;1.90;;;;;;;;;;5111384;28;20019;-67
2021/05/06 11:02:42;;;;;;;5.97;1.87;;;;;;;;;;5099916;28;20366;-68
2021/05/06 11:05:11;;;;;;;4.43;1.60;;;;;;;;;;5093435;28;20020;-68
2021/05/06 11:07:37;;;;;;;3.03;1.77;;;;;;;;;;5112980;28;20026;-68
2021/05/06 11:10:04;;;;;;;3.57;1.80;;;;;;;;;;5113145;28;20020;-69
2021/05/06 11:12:30;;;;;;;5.00;1.90;;;;;;;;;;5104206;28;20014;-68
2021/05/06 11:14:59;;;;;;;3.53;1.80;;;;;;;;;;5113231;28;20045;-68
2021/05/06 11:17:24;;;;;;;3.00;1.60;;;;;;;;;;5108691;28;20367;-68
2021/05/06 11:19:49;;;;;;;4.83;1.90;;;;;;;;;;5114305;28;20024;-69
2021/05/06 11:22:33;;;;;;;3.57;1.60;;;;;;;;;;5107474;28;20468;-68
2021/05/06 11:24:59;;;;;;;5.20;1.70;;;;;;;;;;5099799;28;20024;-67
2021/05/06 11:27:34;;;;;;;3.70;1.83;;;;;;;;;;5108390;28;20026;-67
2021/05/06 11:30:19;;;;;;;3.73;1.90;;;;;;;;;;5114263;28;20107;-67
2021/05/06 11:32:49;;;;;;;2.63;1.60;;;;;;;;;;5109175;27;20031;-67
2021/05/06 11:35:14;;;;;;;5.57;1.73;;;;;;;;;;5111931;28;20106;-67
2021/05/06 11:37:50;;;;;;;3.47;1.70;;;;;;;;;;5105708;27;20425;-67
2021/05/06 11:40:21;;;;;;;4.47;2.50;;;;;;;;;;5075369;28;20060;-67
2021/05/06 11:42:46;;;;;;;5.20;2.10;;;;;;;;;;5106998;28;20493;-67
2021/05/06 11:45:19;;;;;;;4.77;2.37;;;;;;;;;;5105487;27;20019;-67
2021/05/06 11:47:44;;;;;;;4.17;2.10;;;;;;;;;;5112360;28;20072;-68
2021/05/06 11:50:21;;;;;;;4.07;1.97;;;;;;;;;;5113839;28;20376;-68
2021/05/06 11:52:46;;;;;;;5.07;2.07;;;;;;;;;;5100248;28;20043;-68
2021/05/06 11:55:32;;;;;;;4.30;2.03;;;;;;;;;;5110265;28;20524;-68
2021/05/06 11:57:57;;;;;;;3.40;1.60;;;;;;;;;;5103800;28;20031;-68
2021/05/06 12:00:26;;;;;;;4.93;2.20;;;;;;;;;;5110789;28;20027;-67
2021/05/06 12:03:02;;;;;;;3.23;1.70;;;;;;;;;;5084389;28;20048;-67
2021/05/06 12:06:06;;;;;;;4.23;1.63;;;;;;;;;;5085180;28;20020;-67
2021/05/06 12:08:44;;;;;;;3.40;1.80;;;;;;;;;;5005809;28;20080;-67
2021/05/06 12:11:13;;;;;;;4.00;1.93;;;;;;;;;;5010448;28;20518;-67
2021/05/06 12:13:40;;;;;;;4.10;1.73;;;;;;;;;;5056357;28;20031;-67
2021/05/06 12:16:24;;;;;;;3.90;2.00;;;;;;;;;;5084949;28;20032;-66
2021/05/06 12:18:59;;;;;;;4.27;1.90;;;;;;;;;;5086002;28;20031;-67
2021/05/06 12:21:46;;;;;;;4.37;1.40;;;;;;;;;;5092261;28;20028;-67
2021/05/06 12:24:13;;;;;;;3.70;1.70;;;;;;;;;;5074209;28;20025;-67
2021/05/06 12:26:40;;;;;;;2.53;1.27;;;;;;;;;;5094736;28;20020;-67
2021/05/06 12:29:06;;;;;;;3.13;1.60;;;;;;;;;;5090586;28;20031;-67
2021/05/06 12:31:44;;;;;;;3.77;1.80;;;;;;;;;;5091932;28;20024;-67
2021/05/06 12:34:16;;;;;;;3.33;1.80;;;;;;;;;;5092392;28;20028;-66
2021/05/06 12:36:41;;;;;;;;;;;;;;;;;;5091509;28;20077;-66
2021/05/06 12:39:08;;;;;;;3.78;1.90;;;;;;;;;;5091308;28;19908;-67
2021/05/06 12:41:33;;;;;;;3.63;1.90;;;;;;;;;;5078916;28;20103;-67
2021/05/06 12:43:59;;;;;;;3.63;1.73;;;;;;;;;;5079026;28;20529;-67
2021/05/06 12:46:25;;;;;;;3.97;1.90;;;;;;;;;;5078974;28;20416;-67
2021/05/06 12:48:58;;;;;;;3.73;1.80;;;;;;;;;;5086737;28;20013;-67
2021/05/06 12:51:31;;;;;;;6.37;1.90;;;;;;;;;;5072166;28;20477;-67
2021/05/06 12:53:59;;;;;;;2.77;1.33;;;;;;;;;;5088716;28;20051;-67
2021/05/06 12:56:25;;;;;;;4.63;1.80;;;;;;;;;;5091788;28;20042;-67
2021/05/06 12:58:51;;;;;;;5.07;1.80;;;;;;;;;;5090995;28;20086;-67
2021/05/06 13:01:16;;;;;;;4.03;1.67;;;;;;;;;;5085464;28;20049;-67
2021/05/06 13:03:45;;;;;;;4.37;2.00;;;;;;;;;;5087710;28;20028;-67
2021/05/06 13:06:15;;;;;;;3.60;1.77;;;;;;;;;;5085155;28;20029;-67
2021/05/06 13:08:42;;;;;;;3.80;1.90;;;;;;;;;;5087283;28;20028;-66
2021/05/06 13:11:08;;;;;;;6.77;2.00;;;;;;;;;;5091785;28;20055;-66
2021/05/06 13:13:41;;;;;;;4.10;2.00;;;;;;;;;;5088314;28;20032;-66
2021/05/06 13:16:10;;;;;;;4.77;1.80;;;;;;;;;;5087290;28;20028;-66
2021/05/06 13:18:36;;;;;;;4.33;1.77;;;;;;;;;;5090793;28;20054;-66
2021/05/06 13:21:02;;;;;;;5.13;2.20;;;;;;;;;;5091025;28;20036;-66
2021/05/06 13:23:31;;;;;;;4.27;2.00;;;;;;;;;;5091021;28;20418;-66
2021/05/06 13:25:58;;;;;;;4.57;1.90;;;;;;;;;;5089375;28;20031;-66
2021/05/06 13:28:32;;;;;;;6.37;2.40;;;;;;;;;;5086421;28;20024;-66
2021/05/06 13:31:12;;;;;;;4.17;1.87;;;;;;;;;;5091646;28;20021;-66
2021/05/06 13:33:39;;;;;;;4.40;2.00;;;;;;;;;;5079686;28;20387;-66
2021/05/06 13:36:11;;;;;;;3.43;1.47;;;;;;;;;;5091308;28;20459;-66
2021/05/06 13:38:52;;;;;;;2.90;1.30;;;;;;;;;;5091026;28;20160;-66
2021/05/06 13:41:27;;;;;;;3.27;1.50;;;;;;;;;;5087622;28;20035;-66
2021/05/06 13:43:53;;;;;;;3.83;1.50;;;;;;;;;;5089615;28;20031;-66
2021/05/06 13:46:19;;;;;;;3.07;1.50;;;;;;;;;;5091045;28;20040;-66
2021/05/06 13:48:44;;;;;;;3.30;1.40;;;;;;;;;;5089905;28;20101;-66
2021/05/06 13:51:10;;;;;;;2.73;1.40;;;;;;;;;;5090554;28;20024;-66
2021/05/06 13:53:39;;;;;;;4.57;1.27;;;;;;;;;;5089878;28;20019;-66
2021/05/06 13:56:05;;;;;;;2.97;1.50;;;;;;;;;;5088903;28;20032;-66
2021/05/06 13:58:31;;;;;;;2.77;1.30;;;;;;;;;;5090228;28;20024;-66
2021/05/06 14:00:56;;;;;;;2.20;1.13;;;;;;;;;;5088061;28;20059;-66
2021/05/06 14:03:21;;;;;;;2.33;1.13;;;;;;;;;;5101706;28;20098;-66
2021/05/06 14:05:47;;;;;;;2.77;1.20;;;;;;;;;;5104447;28;20016;-66
2021/05/06 14:08:14;;;;;;;1.93;1.00;;;;;;;;;;5102915;28;20377;-66
2021/05/06 14:10:40;;;;;;;1.97;0.97;;;;;;;;;;5110157;28;20061;-66
2021/05/06 14:13:05;;;;;;;2.27;1.00;;;;;;;;;;5092759;28;20028;-66
2021/05/06 14:15:30;;;;;;;2.20;1.10;;;;;;;;;;5109774;28;20028;-66
2021/05/06 14:17:56;;;;;;;2.70;1.20;;;;;;;;;;5103226;28;20434;-66
2021/05/06 14:20:21;;;;;;;3.73;1.40;;;;;;;;;;5094959;28;20023;-66
2021/05/06 14:22:46;;;;;;;4.33;1.93;;;;;;;;;;5106632;28;20053;-65
2021/05/06 14:25:12;;;;;;;3.37;1.90;;;;;;;;;;5108048;28;20024;-65
2021/05/06 14:27:37;;;;;;;3.00;1.83;;;;;;;;;;5108423;28;20019;-66
2021/05/06 14:30:03;;;;;;;3.60;1.70;;;;;;;;;;5114010;28;20379;-65
2021/05/06 14:32:28;;;;;;;3.83;1.60;;;;;;;;;;5109463;28;20094;-66
2021/05/06 14:34:54;;;;;;;5.03;1.80;;;;;;;;;;5115132;28;20028;-65
2021/05/06 14:37:21;;;;;;;4.80;1.50;;;;;;;;;;5110590;28;20573;-65
2021/05/06 14:39:46;;;;;;;2.77;1.30;;;;;;;;;;5113914;28;20648;-65
2021/05/06 14:42:11;;;;;;;2.00;1.00;;;;;;;;;;5112641;27;20027;-65
2021/05/06 14:44:36;;;;;;;2.63;1.13;;;;;;;;;;5096863;28;20024;-65
2021/05/06 14:47:02;;;;;;;2.77;1.23;;;;;;;;;;5099557;28;20103;-66
2021/05/06 14:49:27;;;;;;;3.53;1.50;;;;;;;;;;5096006;28;20026;-66
2021/05/06 14:51:52;;;;;;;2.80;1.20;;;;;;;;;;5103319;28;20031;-66
2021/05/06 14:54:17;;;;;;;2.23;1.13;;;;;;;;;;5110191;28;20031;-66
2021/05/06 14:56:43;;;;;;;3.07;1.17;;;;;;;;;;5104860;28;20024;-66
2021/05/06 14:59:08;;;;;;;2.40;1.23;;;;;;;;;;5109323;28;20034;-66
2021/05/06 15:01:33;;;;;;;2.53;1.30;;;;;;;;;;5098821;28;20499;-66
2021/05/06 15:03:58;;;;;;;3.17;1.40;;;;;;;;;;5084783;28;20085;-67
2021/05/06 15:06:24;;;;;;;3.07;1.40;;;;;;;;;;5090131;28;20042;-66
2021/05/06 15:08:49;;;;;;;3.10;1.53;;;;;;;;;;5091502;28;20056;-66
2021/05/06 15:11:14;;;;;;;3.53;1.70;;;;;;;;;;5082714;28;20040;-66
2021/05/06 15:13:40;;;;;;;5.20;1.77;;;;;;;;;;5088099;28;20012;-66
2021/05/06 15:16:05;;;;;;;13.47;2.73;;;;;;;;;;5084177;28;20473;-66
2021/05/06 15:18:30;;;;;;;3.43;1.70;;;;;;;;;;5088568;28;20038;-66
2021/05/06 15:20:55;;;;;;;3.27;1.37;;;;;;;;;;5090187;28;20035;-66
2021/05/06 15:23:21;;;;;;;3.73;1.30;;;;;;;;;;5085925;28;20027;-66
2021/05/06 15:25:46;;;;;;;3.80;1.50;;;;;;;;;;5084685;28;20111;-66
2021/05/06 15:28:13;;;;;;;3.00;1.50;;;;;;;;;;5087417;28;20121;-66
2021/05/06 15:30:39;;;;;;;5.37;1.77;;;;;;;;;;5092793;28;20020;-66
2021/05/06 15:33:04;;;;;;;3.50;1.67;;;;;;;;;;5088435;28;20431;-66
2021/05/06 15:35:29;;;;;;;3.70;1.53;;;;;;;;;;5092458;28;20284;-66
2021/05/06 15:37:54;;;;;;;5.27;1.70;;;;;;;;;;5077444;28;20545;-66
2021/05/06 15:40:20;;;;;;;2.50;1.30;;;;;;;;;;5080129;28;20031;-66
2021/05/06 15:42:46;;;;;;;5.83;1.70;;;;;;;;;;5079387;28;20028;-66
2021/05/06 15:45:12;;;;;;;3.90;1.70;;;;;;;;;;5083603;28;20024;-66
2021/05/06 15:47:38;;;;;;;5.27;1.83;;;;;;;;;;5082058;28;20032;-66
2021/05/06 15:50:08;;;;;;;5.17;1.70;;;;;;;;;;5083029;28;20024;-66
2021/05/06 15:52:33;;;;;;;3.87;2.00;;;;;;;;;;5083534;28;20024;-66
2021/05/06 15:54:59;;;;;;;5.10;1.93;;;;;;;;;;5082320;28;20499;-66
2021/05/06 15:57:24;;;;;;;5.57;2.30;;;;;;;;;;5081049;28;20397;-66
2021/05/06 15:59:49;;;;;;;3.83;2.00;;;;;;;;;;5087764;28;20462;-66
2021/05/06 16:02:16;;;;;;;3.27;1.70;;;;;;;;;;5093347;28;20189;-66
2021/05/06 16:04:41;;;;;;;3.93;1.90;;;;;;;;;;5101213;28;20051;-66
2021/05/06 16:07:07;;;;;;;4.17;2.00;;;;;;;;;;5100502;28;20488;-66
2021/05/06 16:09:32;;;;;;;4.73;1.80;;;;;;;;;;5105950;28;20108;-66
2021/05/06 16:11:57;;;;;;;7.37;2.40;;;;;;;;;;5104292;28;20028;-66
2021/05/06 16:14:23;;;;;;;4.60;2.30;;;;;;;;;;5099430;28;20031;-66
2021/05/06 16:16:48;;;;;;;6.97;2.27;;;;;;;;;;5094847;28;20114;-67
2021/05/06 16:19:14;;;;;;;4.10;2.20;;;;;;;;;;5102708;28;20047;-66
2021/05/06 16:21:40;;;;;;;3.90;1.97;;;;;;;;;;5099540;28;20494;-67
2021/05/06 16:24:05;;;;;;;4.27;2.33;;;;;;;;;;5098588;28;20036;-67
2021/05/06 16:26:31;;;;;;;6.83;2.00;;;;;;;;;;5101395;28;20059;-66
2021/05/06 16:28:57;;;;;;;5.10;2.67;;;;;;;;;;5096634;28;20474;-67
2021/05/06 16:31:22;;;;;;;4.37;2.13;;;;;;;;;;5101757;27;20612;-66
2021/05/06 16:33:54;;;;;;;3.83;2.00;;;;;;;;;;5102613;28;20114;-67
2021/05/06 16:36:33;;;;;;;6.93;3.05;;;;;;;;;;5104433;28;20054;-67
2021/05/06 16:46:56;;;;;;;4.00;2.23;;;;;;;;;;5095545;27;20475;-67
2021/05/06 16:49:21;;;;;;;5.87;2.73;;;;;;;;;;5093645;28;20030;-67
2021/05/06 16:51:46;;;;;;;6.00;2.67;;;;;;;;;;5101529;28;20012;-67
2021/05/06 16:54:12;;;;;;;6.50;2.33;;;;;;;;;;5095606;28;20074;-67
2021/05/06 16:56:37;;;;;;;6.90;2.40;;;;;;;;;;5096827;28;20081;-67
2021/05/06 16:59:02;;;;;;;6.70;2.70;;;;;;;;;;5101683;28;20027;-67
2021/05/06 17:01:28;;;;;;;4.70;2.43;;;;;;;;;;5095903;27;20048;-67
2021/05/06 17:03:53;;;;;;;7.23;2.47;;;;;;;;;;5097710;28;20114;-66
2021/05/06 17:06:18;;;;;;;7.87;2.70;;;;;;;;;;5083267;28;20592;-67
2021/05/06 17:08:44;;;;;;;6.50;2.40;;;;;;;;;;5099950;28;20020;-66
2021/05/06 17:11:09;;;;;;;5.03;2.47;;;;;;;;;;5099132;28;20464;-67
2021/05/06 17:13:34;;;;;;;6.13;2.77;;;;;;;;;;5097377;28;20032;-67
2021/05/06 17:16:00;;;;;;;4.50;2.30;;;;;;;;;;5104860;28;20059;-67
2021/05/06 17:18:25;;;;;;;4.47;2.27;;;;;;;;;;5099869;28;20030;-66
2021/05/06 17:20:50;;;;;;;7.00;2.70;;;;;;;;;;5096619;28;20042;-67
2021/05/06 17:23:16;;;;;;;5.57;2.60;;;;;;;;;;5101866;28;20740;-66
2021/05/06 17:25:41;;;;;;;5.27;2.67;;;;;;;;;;5101252;28;20309;-67
2021/05/06 17:28:06;;;;;;;5.23;2.40;;;;;;;;;;5097303;28;20077;-66
2021/05/06 17:30:31;;;;;;;4.90;2.47;;;;;;;;;;5100586;28;20023;-66
2021/05/06 17:32:57;;;;;;;5.63;2.77;;;;;;;;;;5106226;28;20030;-66
2021/05/06 17:35:22;;;;;;;5.53;2.37;;;;;;;;;;5109149;28;20020;-67
2021/05/06 17:37:47;;;;;;;5.10;2.70;;;;;;;;;;5106242;28;20068;-66
2021/05/06 17:40:14;;;;;;;11.57;3.20;;;;;;;;;;5106849;28;20023;-66
2021/05/06 17:42:40;;;;;;;6.57;3.33;;;;;;;;;;5099956;28;20020;-66
2021/05/06 17:45:07;;;;;;;6.53;3.30;;;;;;;;;;5095739;28;20430;-66
2021/05/06 17:47:32;;;;;;;6.13;3.50;;;;;;;;;;5101054;28;20027;-66
2021/05/06 17:49:57;;;;;;;7.30;3.67;;;;;;;;;;5108167;28;20149;-66
2021/05/06 17:52:22;;;;;;;6.77;3.80;;;;;;;;;;5101223;28;20028;-66
2021/05/06 17:54:48;;;;;;;9.27;4.00;;;;;;;;;;5103157;28;20028;-64
2021/05/06 17:57:13;;;;;;;7.63;3.70;;;;;;;;;;5101053;28;20460;-66
2021/05/06 17:59:38;;;;;;;9.50;4.20;;;;;;;;;;5109878;28;20638;-66
2021/05/06 18:02:03;;;;;;;9.50;4.10;;;;;;;;;;5101543;28;20215;-66
2021/05/06 18:04:29;;;;;;;7.63;3.43;;;;;;;;;;5106964;28;20080;-66
2021/05/06 18:06:54;;;;;;;13.50;4.40;;;;;;;;;;5107781;28;20066;-66
2021/05/06 18:09:35;;;;;;;7.33;3.97;;;;;;;;;;5103235;28;20081;-66
2021/05/06 18:12:15;;;;;;;8.87;3.63;;;;;;;;;;5109193;28;20032;-66
2021/05/06 18:14:41;;;;;;;7.17;3.13;;;;;;;;;;5099400;28;20045;-66
2021/05/06 18:17:07;;;;;;;7.60;3.73;;;;;;;;;;5111668;28;20028;-66
2021/05/06 18:19:34;;;;;;;8.57;3.57;;;;;;;;;;5111410;28;20120;-66